Latest Weather Observations for Coonawarra

IDS60801

Issued at 9:01 pm CDT Monday 20 February 2017 (issued every 30 minutes, with the page automatically refreshed every 10 minutes)

About weather observations | Map of weather stations | Latest weather observations for SA | Other Formats
Station Details ID: 026091 Name: COONAWARRA Lat: -37.29 Lon: 140.83 Height: 57.0 m
Data from the previous 72 hours. | See also: Recent months at Coonawarra
Date/Time
CDT
Temp
°C
App
Temp
°C
Dew
Point
°C
Rel
Hum
%
Delta-T
°C
Wind Press
QNH
hPa
Press
MSL
hPa
Rain since
9am
mm
Dir  Spd
km/h
Gust
km/h
Spd
kts
Gust
kts
20/09:00pm 12.9 10.9 8.5 74 2.2 SSE 9 13 5 7 1019.5 1019.4 0.2
20/08:30pm 13.9 11.4 8.3 69 2.8 SSE 11 15 6 8 1019.1 1019.0 0.2
20/08:00pm 14.9 12.0 8.1 64 3.4 SSE 13 20 7 11 1018.8 1018.7 0.2
20/07:30pm 16.2 12.1 6.1 51 4.9 SSW 17 22 9 12 1018.4 1018.3 0.2
20/07:00pm 17.0 12.9 6.4 49 5.2 SSE 17 26 9 14 1017.8 1017.7 0.2
20/06:30pm 17.5 12.8 5.3 44 5.9 SSE 19 26 10 14 1017.5 1017.4 0.2
20/06:00pm 17.2 12.9 5.1 44 5.8 SSW 17 26 9 14 1017.3 1017.2 0.2
20/05:30pm 17.9 13.0 5.3 43 6.1 S 20 28 11 15 1017.2 1017.1 0.2
20/05:00pm 18.4 13.6 4.6 40 6.6 SSW 19 26 10 14 1017.1 1017.0 0.2
20/04:30pm 18.7 13.8 5.1 40 6.6 SSW 20 33 11 18 1016.8 1016.7 0.2
20/04:00pm 18.7 13.2 4.2 38 6.9 SSW 22 30 12 16 1016.6 1016.5 0.2
20/03:30pm 18.6 13.8 4.6 39 6.7 SSW 19 30 10 16 1016.7 1016.6 0.2
20/03:00pm 18.8 14.3 4.1 37 7.0 SW 17 28 9 15 1016.7 1016.6 0.2
20/02:30pm 18.5 14.1 4.8 40 6.6 SW 17 26 9 14 1016.9 1016.8 0.2
20/02:00pm 18.3 13.6 5.3 42 6.3 SSW 19 24 10 13 1017.0 1016.9 0.2
20/01:30pm 18.6 14.3 5.2 41 6.5 WSW 17 28 9 15 1016.8 1016.7 0.2
20/01:00pm 18.3 14.0 5.3 42 6.3 SW 17 26 9 14 1017.0 1016.9 0.2
20/12:30pm 17.9 13.4 4.1 40 6.5 SSW 17 22 9 12 1017.4 1017.3 0.0
20/12:00pm 17.8 14.1 4.6 41 6.3 SW 13 20 7 11 1017.5 1017.4 0.0
20/11:30am 17.4 12.4 4.8 43 6.0 SW 20 28 11 15 1017.7 1017.6 0.0
20/11:00am 16.9 13.2 4.7 44 5.8 SSW 13 22 7 12 1017.5 1017.4 0.0
20/10:30am 17.1 13.5 5.0 44 5.8 S 13 19 7 10 1017.4 1017.3 0.0
20/10:00am 17.1 13.2 5.5 46 5.6 SSW 15 22 8 12 1017.5 1017.4 0.0
20/09:30am 16.1 12.1 6.7 53 4.6 SW 17 28 9 15 1017.5 1017.4 0.0
20/09:00am 15.0 11.1 7.1 59 3.9 SW 17 22 9 12 1017.4 1017.3 0.4
20/08:30am 13.6 12.7 9.1 74 2.3 W 4 9 2 5 1017.1 1017.0 0.4
20/08:00am 10.1 8.6 8.5 90 0.8 NNW 6 7 3 4 1016.8 1016.7 0.4
20/07:30am 7.8 5.8 6.9 94 0.4 N 7 9 4 5 1016.5 1016.4 0.4
20/07:00am 7.4 6.2 6.5 94 0.4 ENE 2 6 1 3 1016.1 1016.0 0.4
20/06:30am 8.4 7.8 7.6 95 0.4 CALM 0 2 0 1 1015.7 1015.5 0.4
20/06:00am 8.6 6.3 7.3 91 0.6 W 9 13 5 7 1015.4 1015.2 0.4
20/05:30am 5.7 2.3 4.1 89 0.7 W 11 13 6 7 1015.2 1015.0 0.4
20/05:00am 5.3 2.3 4.1 92 0.5 WSW 9 11 5 6 1015.1 1014.9 0.4
20/04:30am 5.8 3.3 4.6 92 0.5 WSW 7 9 4 5 1015.0 1014.8 0.4
20/04:00am 7.5 4.4 5.7 88 0.8 WSW 11 11 6 6 1015.0 1014.8 0.4
20/03:30am 8.0 5.0 6.0 87 0.9 W 11 13 6 7 1014.8 1014.6 0.4
20/03:00am 8.5 5.6 6.6 88 0.9 W 11 13 6 7 1014.9 1014.7 0.4
20/02:30am 8.5 5.7 6.8 89 0.8 W 11 13 6 7 1014.8 1014.6 0.4
20/02:00am 7.0 4.0 5.9 93 0.5 WNW 11 13 6 7 1014.9 1014.7 0.4
20/01:30am 6.3 3.1 5.2 93 0.5 W 11 13 6 7 1015.0 1014.8 0.4
20/01:00am 6.6 3.9 5.5 93 0.5 W 9 13 5 7 1015.1 1014.9 0.4
20/12:30am 6.5 3.4 5.4 93 0.5 WNW 11 13 6 7 1015.1 1014.9 0.4
20/12:00am 6.7 3.5 5.3 91 0.6 W 11 13 6 7 1015.1 1014.9 0.4
 
Date/Time
CDT
Temp
°C
App
Temp
°C
Dew
Point
°C
Rel
Hum
%
Delta-T
°C
Wind Press
QNH
hPa
Press
MSL
hPa
Rain since
9am
mm
Dir  Spd
km/h
Gust
km/h
Spd
kts
Gust
kts
19/11:30pm 7.1 4.0 5.5 89 0.7 WNW 11 13 6 7 1015.2 1015.0 0.4
19/11:00pm 7.6 4.9 5.8 88 0.8 W 9 11 5 6 1015.2 1015.0 0.4
19/10:30pm 7.7 5.1 6.2 90 0.7 WSW 9 9 5 5 1015.1 1014.9 0.4
19/10:00pm 9.6 6.8 7.1 84 1.2 SW 11 11 6 6 1015.1 1014.9 0.4
19/09:30pm 11.2 8.8 7.2 76 1.9 WSW 9 11 5 6 1015.0 1014.8 0.4
19/09:00pm 11.3 8.9 7.1 75 2.0 SW 9 13 5 7 1014.9 1014.7 0.4
19/08:30pm 12.8 8.8 6.8 67 2.9 SW 17 24 9 13 1014.6 1014.4 0.4
19/08:00pm 13.1 9.3 5.9 61 3.4 SW 15 22 8 12 1014.1 1013.9 0.4
19/07:30pm 14.1 8.7 4.6 52 4.4 SSW 22 32 12 17 1013.9 1013.7 0.4
19/07:00pm 14.5 9.4 4.3 50 4.7 SSW 20 37 11 20 1013.5 1013.3 0.4
19/06:30pm 15.0 8.6 5.0 51 4.7 SSW 28 44 15 24 1013.1 1012.9 0.4
19/06:00pm 15.0 8.4 4.2 48 5.0 SSW 28 41 15 22 1013.0 1012.8 0.4
19/05:30pm 16.1 8.9 3.2 42 5.9 SSW 30 48 16 26 1012.7 1012.5 0.4
19/05:00pm 17.2 9.3 2.5 37 6.7 SSW 33 46 18 25 1012.4 1012.2 0.4
19/04:30pm 18.7 12.0 3.4 36 7.2 SW 28 43 15 23 1012.3 1012.1 0.4
19/04:04pm 16.8 9.4 1.8 36 6.7 SW 30 50 16 27 1012.3 1012.1 0.4
19/04:00pm 17.5 9.9 2.7 37 6.8 SW 32 46 17 25 1012.2 1012.0 0.4
19/03:30pm 16.8 9.0 2.8 39 6.4 SW 33 44 18 24 1012.3 1012.1 0.4
19/03:00pm 17.4 9.8 4.0 41 6.3 SW 33 48 18 26 1012.3 1012.1 0.4
19/02:41pm 17.2 10.6 4.3 42 6.1 SW 28 50 15 27 1012.2 1012.0 0.4
19/02:30pm 18.4 12.2 6.1 44 6.1 SW 28 43 15 23 1012.4 1012.2 0.4
19/02:00pm 16.3 9.5 5.2 47 5.3 SSW 30 41 16 22 1012.6 1012.4 0.4
19/01:30pm 16.0 9.9 6.4 53 4.7 SW 28 41 15 22 1012.7 1012.5 0.4
19/01:00pm 15.8 9.0 7.1 56 4.3 SSW 32 44 17 24 1012.9 1012.7 0.4
19/12:30pm 15.6 9.8 9.4 66 3.2 SSW 30 41 16 22 1012.9 1012.7 0.4
19/12:00pm 14.9 10.9 10.3 74 2.4 WSW 22 32 12 17 1013.1 1012.9 0.4
19/11:30am 16.4 11.2 8.8 60 3.9 SW 26 46 14 25 1013.3 1013.1 0.2
19/11:24am 16.3 10.7 8.7 60 3.9 SW 28 46 15 25 1013.4 1013.2 0.2
19/11:00am 15.7 10.1 8.9 64 3.5 WSW 28 41 15 22 1013.5 1013.3 0.2
19/10:34am 14.0 8.8 10.2 78 2.0 SW 28 50 15 27 1013.8 1013.6 0.0
19/10:30am 15.9 11.2 9.3 65 3.4 SW 24 33 13 18 1013.5 1013.3 0.0
19/10:00am 13.1 8.1 9.6 79 1.8 SW 26 39 14 21 1013.7 1013.5 0.0
19/09:30am 14.5 11.4 10.3 76 2.2 SW 17 26 9 14 1013.4 1013.2 0.0
19/09:00am 14.4 10.8 10.4 77 2.1 W 20 28 11 15 1013.3 1013.1 1.0
19/08:30am 12.8 9.8 10.5 86 1.2 WNW 17 22 9 12 1013.3 1013.1 1.0
19/08:00am 12.3 10.2 11.0 92 0.7 WNW 13 19 7 10 1013.0 1012.8 1.0
19/07:30am 10.9 9.2 9.9 93 0.5 WNW 9 13 5 7 1012.9 1012.7 1.0
19/07:00am 10.9 8.5 9.9 93 0.5 NW 13 19 7 10 1013.0 1012.8 1.0
19/06:30am 10.7 8.9 9.5 92 0.6 NW 9 13 5 7 1012.8 1012.6 1.0
19/06:00am 10.8 8.7 9.6 92 0.6 WSW 11 15 6 8 1012.6 1012.4 1.0
19/05:30am 10.6 8.0 9.4 92 0.6 WNW 13 15 7 8 1012.4 1012.2 1.0
19/05:00am 10.9 8.7 9.5 91 0.7 WSW 11 19 6 10 1012.4 1012.2 0.8
19/04:30am 11.0 7.9 8.8 86 1.1 W 15 20 8 11 1012.6 1012.4 0.8
19/04:00am 11.1 7.7 9.1 87 1.0 W 17 22 9 12 1012.4 1012.2 0.8
19/03:30am 10.5 8.1 8.7 89 0.9 W 11 15 6 8 1012.8 1012.6 0.8
19/03:00am 10.4 8.0 8.6 89 0.9 WNW 11 15 6 8 1012.8 1012.6 0.8
19/02:30am 10.7 8.3 8.7 87 1.0 NW 11 13 6 7 1013.2 1013.0 0.8
19/02:00am 10.9 8.1 8.7 86 1.1 NW 13 19 7 10 1013.6 1013.4 0.8
19/01:30am 10.5 8.6 9.1 91 0.7 NW 9 13 5 7 1014.1 1013.9 0.8
19/01:00am 10.5 8.6 9.1 91 0.7 WNW 9 11 5 6 1014.4 1014.2 0.8
19/12:30am 10.3 7.3 9.1 92 0.6 W 15 22 8 12 1014.8 1014.6 0.8
19/12:00am 8.2 5.4 7.1 93 0.5 WNW 11 13 6 7 1014.5 1014.3 0.6
 
Date/Time
CDT
Temp
°C
App
Temp
°C
Dew
Point
°C
Rel
Hum
%
Delta-T
°C
Wind Press
QNH
hPa
Press
MSL
hPa
Rain since
9am
mm
Dir  Spd
km/h
Gust
km/h
Spd
kts
Gust
kts
18/11:30pm 8.6 5.5 7.3 91 0.6 WNW 13 15 7 8 1014.7 1014.5 0.6
18/11:00pm 8.5 5.7 6.8 89 0.8 NW 11 13 6 7 1014.9 1014.7 0.6
18/10:30pm 8.5 6.1 6.8 89 0.8 WNW 9 11 5 6 1015.0 1014.8 0.6
18/10:00pm 9.4 7.1 7.3 87 1.0 W 9 11 5 6 1015.1 1014.9 0.6
18/09:30pm 10.9 8.7 7.8 81 1.5 WSW 9 13 5 7 1015.1 1014.9 0.6
18/09:00pm 11.5 8.9 7.6 77 1.9 WSW 11 15 6 8 1014.9 1014.7 0.6
18/08:30pm 11.8 8.5 7.9 77 1.9 SW 15 20 8 11 1014.8 1014.6 0.6
18/08:00pm 12.7 9.6 7.1 69 2.7 WSW 13 19 7 10 1014.7 1014.5 0.6
18/07:30pm 14.2 9.9 6.8 61 3.6 WSW 19 28 10 15 1014.3 1014.1 0.6
18/07:00pm 13.5 8.4 7.6 67 2.9 WSW 24 35 13 19 1014.2 1014.0 0.6
18/06:30pm 15.7 10.7 4.6 47 5.2 SW 20 32 11 17 1013.7 1013.5 0.6
18/06:00pm 16.7 10.8 3.8 42 6.0 SW 24 37 13 20 1013.6 1013.4 0.6
18/05:30pm 16.1 10.1 5.5 49 5.1 SW 26 35 14 19 1013.6 1013.4 0.6
18/05:00pm 17.7 11.2 4.7 42 6.2 SW 28 39 15 21 1013.3 1013.1 0.6
18/04:30pm 17.8 11.2 4.3 40 6.4 SW 28 37 15 20 1013.5 1013.3 0.6
18/04:00pm 17.3 11.0 3.6 40 6.4 SW 26 37 14 20 1013.4 1013.2 0.6
18/03:30pm 16.5 12.6 8.5 59 4.1 WNW 19 26 10 14 1013.5 1013.3 0.6
18/03:00pm 17.1 13.2 7.3 52 4.9 W 17 26 9 14 1013.7 1013.5 0.6
18/02:30pm 15.6 10.2 7.8 59 3.9 WSW 26 37 14 20 1013.9 1013.7 0.6
18/02:00pm 16.8 12.1 5.9 48 5.3 WSW 20 30 11 16 1013.9 1013.7 0.6
18/01:30pm 14.9 8.0 6.5 57 4.1 SW 32 44 17 24 1013.8 1013.6 0.4
18/01:00pm 17.7 13.0 5.3 44 6.0 WSW 19 28 10 15 1013.4 1013.2 0.4
18/12:30pm 16.9 12.5 7.3 53 4.8 SW 20 33 11 18 1013.7 1013.5 0.4
18/12:00pm 16.5 13.2 8.0 57 4.3 WSW 15 22 8 12 1013.7 1013.5 0.4
18/11:30am 15.8 12.4 7.8 59 4.0 W 15 22 8 12 1013.9 1013.7 0.4
18/11:00am 14.9 11.0 8.6 66 3.2 WNW 19 26 10 14 1013.9 1013.7 0.4
18/10:30am 13.9 10.0 8.8 71 2.6 WNW 19 24 10 13 1014.0 1013.8 0.4
18/10:00am 13.3 11.3 8.5 72 2.4 WNW 9 15 5 8 1014.0 1013.8 0.4
18/09:30am 12.3 10.6 9.8 85 1.3 WNW 9 13 5 7 1014.1 1013.9 0.4
18/09:00am 12.1 10.2 8.9 81 1.6 WNW 9 11 5 6 1013.9 1013.7 0.8
18/08:30am 11.3 9.4 9.1 86 1.1 NW 9 11 5 6 1013.4 1013.2 0.8
18/08:00am 10.3 8.9 8.7 90 0.8 WNW 6 9 3 5 1013.1 1012.9 0.8
18/07:30am 8.7 7.5 8.1 96 0.3 W 4 9 2 5 1012.7 1012.5 0.8
18/07:00am 7.4 5.3 6.5 94 0.4 NW 7 11 4 6 1012.6 1012.4 0.8
18/06:30am 6.9 5.6 6.0 94 0.4 NNW 2 7 1 4 1012.0 1011.8 0.8
18/06:00am 7.8 5.0 6.9 94 0.4 NW 11 13 6 7 1011.8 1011.6 0.8
18/05:30am 8.3 6.3 7.2 93 0.5 W 7 9 4 5 1011.7 1011.5 0.8
18/05:00am 8.7 6.4 7.6 93 0.5 W 9 11 5 6 1011.8 1011.6 0.8
18/04:30am 10.0 8.3 8.4 90 0.8 WSW 7 9 4 5 1011.5 1011.3 0.8
18/04:00am 11.1 8.4 8.9 86 1.1 SW 13 19 7 10 1011.5 1011.3 0.8
18/03:30am 10.8 8.1 9.0 89 0.9 W 13 20 7 11 1011.7 1011.5 0.8
18/03:00am 10.1 7.4 8.9 92 0.6 WNW 13 20 7 11 1011.8 1011.6 0.6
18/02:30am 8.9 7.0 7.6 91 0.6 W 7 9 4 5 1011.8 1011.6 0.2
18/02:00am 9.9 7.5 8.5 91 0.7 WSW 11 11 6 6 1012.0 1011.8 0.2
18/01:30am 10.4 8.5 9.0 91 0.7 WSW 9 15 5 8 1012.1 1011.9 0.2
18/01:00am 11.4 10.0 9.6 89 0.9 WSW 7 9 4 5 1012.3 1012.1 0.2
18/12:30am 12.8 11.2 10.1 84 1.4 WSW 9 13 5 7 1012.4 1012.2 0.2
18/12:00am 12.7 10.8 10.6 87 1.1 W 11 13 6 7 1012.7 1012.5 0.2
 
Date/Time
CDT
Temp
°C
App
Temp
°C
Dew
Point
°C
Rel
Hum
%
Delta-T
°C
Wind Press
QNH
hPa
Press
MSL
hPa
Rain since
9am
mm
Dir  Spd
km/h
Gust
km/h
Spd
kts
Gust
kts
17/11:30pm 12.5 11.4 10.8 89 0.9 W 7 9 4 5 1012.7 1012.5 0.2
17/11:00pm 12.6 10.8 10.7 88 1.0 WSW 11 13 6 7 1012.8 1012.6 0.2
17/10:30pm 13.0 11.3 11.3 89 0.9 WSW 11 13 6 7 1012.8 1012.6 0.2
17/10:00pm 13.7 10.6 11.5 86 1.2 WSW 19 30 10 16 1012.9 1012.7 0.2
17/09:30pm 15.3 13.6 9.7 69 2.9 W 9 15 5 8 1012.5 1012.3 0.0

Other Formats:

Comma delimited format used in spreadsheet applications
http://www.bom.gov.au/fwo/IDS60801/IDS60801.94817.axf

JavaScript Object Notation format (JSON) in row-major order
http://www.bom.gov.au/fwo/IDS60801/IDS60801.94817.json